createdAt,value
2023-02-01T00:00:35.507Z,4.75
2023-02-01T00:03:02.203Z,4.13
2023-02-01T00:05:28.721Z,4.75
2023-02-01T00:07:55.231Z,3.92
2023-02-01T00:10:21.968Z,4.50
2023-02-01T00:12:48.585Z,4.05
2023-02-01T00:15:15.321Z,4.18
2023-02-01T00:17:41.844Z,4.35
2023-02-01T00:20:09.212Z,3.83
2023-02-01T00:22:35.742Z,3.92
2023-02-01T00:25:02.212Z,4.03
2023-02-01T00:27:28.807Z,4.20
2023-02-01T00:29:56.529Z,3.53
2023-02-01T00:32:23.248Z,4.45
2023-02-01T00:34:49.764Z,4.30
2023-02-01T00:37:16.275Z,3.92
2023-02-01T00:39:42.751Z,4.20
2023-02-01T00:42:09.487Z,4.22
2023-02-01T00:44:36.784Z,3.90
2023-02-01T00:47:03.315Z,3.67
2023-02-01T00:49:30.098Z,4.18
2023-02-01T00:51:56.769Z,3.88
2023-02-01T00:54:23.762Z,4.40
2023-02-01T00:56:50.377Z,4.40
2023-02-01T00:59:18.757Z,4.45
2023-02-01T01:01:45.384Z,4.45
2023-02-01T01:04:11.976Z,4.13
2023-02-01T01:06:38.601Z,4.70
2023-02-01T01:09:08.074Z,4.75
2023-02-01T01:11:37.672Z,4.57
2023-02-01T01:14:08.271Z,4.28
2023-02-01T01:16:35.823Z,4.85
2023-02-01T01:19:02.699Z,4.85
2023-02-01T01:21:30.717Z,4.68
2023-02-01T01:23:57.578Z,5.45
2023-02-01T01:26:26.998Z,4.93
2023-02-01T01:28:56.519Z,5.57
2023-02-01T01:31:23.454Z,5.05
2023-02-01T01:33:52.585Z,4.70
2023-02-01T01:36:19.910Z,4.43
2023-02-01T01:38:46.882Z,4.80
2023-02-01T01:41:20.691Z,6.35
2023-02-01T01:43:58.392Z,4.72
2023-02-01T01:46:32.190Z,4.70
2023-02-01T01:49:05.313Z,4.88
2023-02-01T01:51:38.630Z,4.78
2023-02-01T01:54:13.696Z,5.00
2023-02-01T01:56:42.017Z,5.22
2023-02-01T01:59:09.834Z,6.57
2023-02-01T02:01:36.621Z,5.80
2023-02-01T02:04:03.932Z,5.75
2023-02-01T02:06:39.795Z,6.03
2023-02-01T02:09:07.168Z,4.85
2023-02-01T02:11:33.986Z,5.00
2023-02-01T02:14:01.059Z,4.40
2023-02-01T02:17:01.490Z,3.90
2023-02-01T02:20:06.107Z,4.15
2023-02-01T02:22:44.927Z,4.68
2023-02-01T02:25:53.247Z,4.07
2023-02-01T02:28:52.737Z,4.88
2023-02-01T02:31:42.164Z,4.72
2023-02-01T02:34:21.336Z,4.65
2023-02-01T02:37:06.362Z,5.65
2023-02-01T02:39:43.955Z,5.53
2023-02-01T02:42:34.683Z,5.18
2023-02-01T02:45:32.803Z,5.15
2023-02-01T02:48:02.377Z,5.70
2023-02-01T02:50:54.549Z,5.50
2023-02-01T02:53:51.423Z,5.10
2023-02-01T02:56:39.627Z,5.20
2023-02-01T02:59:28.162Z,5.28
2023-02-01T03:02:14.370Z,4.80
2023-02-01T03:04:41.503Z,4.68
2023-02-01T03:07:35.873Z,4.40
2023-02-01T03:10:11.544Z,4.50
2023-02-01T03:12:57.261Z,4.72
2023-02-01T03:15:31.840Z,4.40
2023-02-01T03:18:00.139Z,4.70
2023-02-01T03:20:28.586Z,4.50
2023-02-01T03:22:56.385Z,3.85
2023-02-01T03:25:28.474Z,4.82
2023-02-01T03:28:02.937Z,4.40
2023-02-01T03:30:35.655Z,4.85
2023-02-01T03:33:08.312Z,5.10
2023-02-01T03:35:45.612Z,5.07
2023-02-01T03:38:18.530Z,5.22
2023-02-01T03:40:49.732Z,4.72
2023-02-01T03:43:19.773Z,4.90
2023-02-01T03:45:51.876Z,4.78
2023-02-01T03:48:19.814Z,4.82
2023-02-01T03:50:51.672Z,4.38
2023-02-01T03:53:21.685Z,4.13
2023-02-01T03:55:49.218Z,3.95
2023-02-01T03:58:20.120Z,4.35
2023-02-01T04:00:52.816Z,4.72
2023-02-01T04:03:19.438Z,4.65
2023-02-01T04:05:46.323Z,5.30
2023-02-01T04:08:12.856Z,5.45
2023-02-01T04:10:39.424Z,5.32
2023-02-01T04:13:06.490Z,5.28
2023-02-01T04:15:33.130Z,4.60
2023-02-01T04:17:59.574Z,4.47
2023-02-01T04:20:26.202Z,4.30
2023-02-01T04:22:52.709Z,4.57
2023-02-01T04:25:19.327Z,4.82
2023-02-01T04:27:46.864Z,4.00
2023-02-01T04:30:14.810Z,3.92
2023-02-01T04:32:41.273Z,3.70
2023-02-01T04:35:08.282Z,4.00
2023-02-01T04:37:35.556Z,3.67
2023-02-01T04:40:04.593Z,3.60
2023-02-01T04:42:31.148Z,4.43
2023-02-01T04:44:57.685Z,4.82
2023-02-01T04:47:24.132Z,5.40
2023-02-01T04:49:50.649Z,5.28
2023-02-01T04:52:17.098Z,4.78
2023-02-01T04:54:43.619Z,5.40
2023-02-01T04:57:10.403Z,5.68
2023-02-01T04:59:36.889Z,5.47
2023-02-01T05:02:03.383Z,5.10
2023-02-01T05:04:29.932Z,4.65
2023-02-01T05:06:56.410Z,4.47
2023-02-01T05:09:22.969Z,3.40
2023-02-01T05:12:08.041Z,3.80
2023-02-01T05:14:34.654Z,3.78
2023-02-01T05:17:01.082Z,4.03
2023-02-01T05:19:27.570Z,3.83
2023-02-01T05:21:54.009Z,4.00
2023-02-01T05:24:20.747Z,5.03
2023-02-01T05:26:49.039Z,5.38
2023-02-01T05:29:17.131Z,6.45
2023-02-01T05:31:46.319Z,5.80
2023-02-01T05:34:12.954Z,6.13
2023-02-01T05:36:39.416Z,6.88
2023-02-01T05:39:05.937Z,6.78
2023-02-01T05:41:32.984Z,6.85
2023-02-01T05:43:59.475Z,6.45
2023-02-01T05:46:26.089Z,6.05
2023-02-01T05:48:52.590Z,5.80
2023-02-01T05:51:19.104Z,6.47
2023-02-01T05:53:45.629Z,6.13
2023-02-01T05:56:12.201Z,6.00
2023-02-01T05:58:38.749Z,5.57
2023-02-01T06:01:05.673Z,5.68
2023-02-01T06:03:32.299Z,5.57
2023-02-01T06:05:58.873Z,5.53
2023-02-01T06:08:26.686Z,4.57
2023-02-01T06:11:00.139Z,5.50
2023-02-01T06:13:27.229Z,5.05
2023-02-01T06:15:53.825Z,4.60
2023-02-01T06:18:20.516Z,4.60
2023-02-01T06:20:55.636Z,4.43
2023-02-01T06:23:24.644Z,4.28
2023-02-01T06:25:59.372Z,5.10
2023-02-01T06:28:26.357Z,4.20
2023-02-01T06:30:52.894Z,4.10
2023-02-01T06:33:19.459Z,6.28
2023-02-01T06:35:46.401Z,4.57
2023-02-01T06:38:12.964Z,6.43
2023-02-01T06:40:40.888Z,5.85
2023-02-01T06:43:07.367Z,5.50
2023-02-01T06:45:33.911Z,5.53
2023-02-01T06:48:01.487Z,5.63
2023-02-01T06:50:28.594Z,6.47
2023-02-01T06:52:56.133Z,6.10
2023-02-01T06:55:22.688Z,7.05
2023-02-01T06:57:53.465Z,6.30
2023-02-01T07:00:20.730Z,7.53
2023-02-01T07:02:47.190Z,6.82
2023-02-01T07:05:13.703Z,7.90
2023-02-01T07:07:40.185Z,5.45
2023-02-01T07:10:07.078Z,5.05
2023-02-01T07:12:33.720Z,4.60
2023-02-01T07:15:00.228Z,4.00
2023-02-01T07:17:26.729Z,4.32
2023-02-01T07:19:53.382Z,5.28
2023-02-01T07:22:19.966Z,5.55
2023-02-01T07:24:46.463Z,5.82
2023-02-01T07:27:13.636Z,6.60
2023-02-01T07:29:40.144Z,7.38
2023-02-01T07:32:06.639Z,7.00
2023-02-01T07:34:33.860Z,7.55
2023-02-01T07:37:00.325Z,7.25
2023-02-01T07:39:29.181Z,7.07
2023-02-01T07:41:57.521Z,7.25
2023-02-01T07:44:24.212Z,7.15
2023-02-01T07:46:51.243Z,6.25
2023-02-01T07:49:18.522Z,6.78
2023-02-01T07:51:45.097Z,6.53
2023-02-01T07:54:11.563Z,5.78
2023-02-01T07:56:38.081Z,7.43
2023-02-01T07:59:04.700Z,6.30
2023-02-01T08:01:31.198Z,6.53
2023-02-01T08:04:00.304Z,6.43
2023-02-01T08:06:28.431Z,5.82
2023-02-01T08:08:55.409Z,6.72
2023-02-01T08:11:26.523Z,7.05
2023-02-01T08:13:53.928Z,5.57
2023-02-01T08:16:22.083Z,5.30
2023-02-01T08:18:48.735Z,6.20
2023-02-01T08:21:22.919Z,5.50
2023-02-01T08:23:49.540Z,6.55
2023-02-01T08:26:23.246Z,5.05
2023-02-01T08:28:58.933Z,5.35
2023-02-01T08:31:27.178Z,5.38
2023-02-01T08:33:59.102Z,5.07
2023-02-01T08:36:27.286Z,4.97
2023-02-01T08:38:54.189Z,5.30
2023-02-01T08:41:24.034Z,4.88
2023-02-01T08:43:50.608Z,5.10
2023-02-01T08:46:17.907Z,5.05
2023-02-01T08:48:46.605Z,5.63
2023-02-01T08:51:14.517Z,5.40
2023-02-01T08:53:42.301Z,5.00
2023-02-01T08:56:10.840Z,5.32
2023-02-01T08:58:37.545Z,6.22
2023-02-01T09:01:09.608Z,4.18
2023-02-01T09:03:36.254Z,4.53
2023-02-01T09:06:04.830Z,4.53
2023-02-01T09:08:32.006Z,4.45
2023-02-01T09:11:03.543Z,4.32
2023-02-01T09:13:30.379Z,4.90
2023-02-01T09:15:56.983Z,6.03
2023-02-01T09:18:23.651Z,5.28
2023-02-01T09:20:50.210Z,5.03
2023-02-01T09:23:16.791Z,5.38
2023-02-01T09:25:43.373Z,7.28
2023-02-01T09:28:10.127Z,6.55
2023-02-01T09:30:38.038Z,5.97
2023-02-01T09:33:05.122Z,4.38
2023-02-01T09:35:31.785Z,4.22
2023-02-01T09:37:58.296Z,4.97
2023-02-01T09:40:25.420Z,4.20
2023-02-01T09:43:20.736Z,3.88
2023-02-01T09:46:22.200Z,4.55
2023-02-01T09:48:52.197Z,3.72
2023-02-01T09:51:24.500Z,4.88
2023-02-01T09:54:15.186Z,4.22
2023-02-01T09:56:48.008Z,4.45
2023-02-01T09:59:29.791Z,4.15
2023-02-01T10:01:56.781Z,5.03
2023-02-01T10:04:23.889Z,4.25
2023-02-01T10:07:05.643Z,4.13
2023-02-01T10:09:39.565Z,4.05
2023-02-01T10:12:25.534Z,4.50
2023-02-01T10:15:07.344Z,4.53
2023-02-01T10:17:57.283Z,5.47
2023-02-01T10:20:29.775Z,5.80
2023-02-01T10:23:34.133Z,6.30
2023-02-01T10:26:21.650Z,4.40
2023-02-01T10:28:51.726Z,5.93
2023-02-01T10:31:19.559Z,5.22
2023-02-01T10:33:49.354Z,4.75
2023-02-01T10:36:41.636Z,4.55
2023-02-01T10:39:12.943Z,4.22
2023-02-01T10:41:41.526Z,4.15
2023-02-01T10:44:15.148Z,4.60
2023-02-01T10:46:42.161Z,3.72
2023-02-01T10:49:16.431Z,4.93
2023-02-01T10:54:35.211Z,3.58
2023-02-01T10:57:01.843Z,5.47
2023-02-01T10:59:30.077Z,3.95
2023-02-01T11:02:14.296Z,5.38
2023-02-01T11:04:40.879Z,3.72
2023-02-01T11:07:08.607Z,3.72
2023-02-01T11:09:41.360Z,4.50
2023-02-01T11:12:25.776Z,3.78
2023-02-01T11:17:36.187Z,4.32
2023-02-01T11:20:15.517Z,4.47
2023-02-01T11:22:48.535Z,3.88
2023-02-01T11:25:18.434Z,4.43
2023-02-01T11:27:54.513Z,4.35
2023-02-01T11:30:56.092Z,4.57
2023-02-01T11:33:30.826Z,5.22
2023-02-01T11:35:59.442Z,4.05
2023-02-01T11:38:31.418Z,3.65
2023-02-01T11:41:21.919Z,4.03
2023-02-01T11:44:00.614Z,4.40
2023-02-01T11:46:33.424Z,4.35
2023-02-01T11:49:26.111Z,3.75
2023-02-01T11:52:15.350Z,4.25
2023-02-01T11:54:53.925Z,7.13
2023-02-01T11:57:30.021Z,5.05
2023-02-01T12:00:25.243Z,3.58
2023-02-01T12:03:04.429Z,4.50
2023-02-01T12:05:40.641Z,3.67
2023-02-01T12:08:28.212Z,3.95
2023-02-01T12:11:30.906Z,3.90
2023-02-01T12:14:08.423Z,4.13
2023-02-01T12:16:52.440Z,3.67
2023-02-01T12:19:30.333Z,3.78
2023-02-01T12:22:19.624Z,4.50
2023-02-01T12:25:02.783Z,4.22
2023-02-01T12:28:01.975Z,3.63
2023-02-01T12:30:46.797Z,3.70
2023-02-01T12:33:46.855Z,3.38
2023-02-01T12:36:49.365Z,3.53
2023-02-01T12:39:39.531Z,3.63
2023-02-01T12:42:32.407Z,3.33
2023-02-01T12:45:13.819Z,3.25
2023-02-01T12:47:50.993Z,3.10
2023-02-01T12:50:29.359Z,3.45
2023-02-01T12:53:07.525Z,2.90
2023-02-01T12:55:39.361Z,3.00
2023-02-01T12:58:12.530Z,3.25
2023-02-01T13:00:44.504Z,4.67
2023-02-01T13:03:45.218Z,3.60
2023-02-01T13:06:24.000Z,3.70
2023-02-01T13:09:11.830Z,4.10
2023-02-01T13:11:39.976Z,3.75
2023-02-01T13:14:28.988Z,3.95
2023-02-01T13:17:02.843Z,3.42
2023-02-01T13:19:47.901Z,3.10
2023-02-01T13:22:21.243Z,3.00
2023-02-01T13:24:55.194Z,2.90
2023-02-01T13:27:22.674Z,3.97
2023-02-01T13:29:57.557Z,4.35
2023-02-01T13:33:51.380Z,4.55
2023-02-01T13:35:55.525Z,3.83
2023-02-01T13:38:35.494Z,3.60
2023-02-01T13:41:31.819Z,3.50
2023-02-01T13:44:11.930Z,3.80
2023-02-01T13:46:45.160Z,3.90
2023-02-01T13:49:33.564Z,4.30
2023-02-01T13:52:00.548Z,3.28
2023-02-01T13:54:29.993Z,2.85
2023-02-01T13:56:59.866Z,3.45
2023-02-01T13:59:41.534Z,4.55
2023-02-01T14:02:39.083Z,4.53
2023-02-01T14:05:09.781Z,4.35
2023-02-01T14:07:36.663Z,3.47
2023-02-01T14:10:40.681Z,4.70
2023-02-01T14:13:33.391Z,2.95
2023-02-01T14:16:05.854Z,3.75
2023-02-01T14:18:38.709Z,3.30
2023-02-01T14:21:37.196Z,3.25
2023-02-01T14:24:21.317Z,3.60
2023-02-01T14:26:50.232Z,3.42
2023-02-01T14:29:20.876Z,3.10
2023-02-01T14:32:00.729Z,3.50
2023-02-01T14:34:48.625Z,3.42
2023-02-01T14:37:18.187Z,2.78
2023-02-01T14:39:47.711Z,3.40
2023-02-01T14:42:23.247Z,2.90
2023-02-01T14:44:59.429Z,3.08
2023-02-01T14:47:29.948Z,3.22
2023-02-01T14:50:04.046Z,3.28
2023-02-01T14:52:50.965Z,3.05
2023-02-01T14:55:30.713Z,2.95
2023-02-01T14:58:01.751Z,2.85
2023-02-01T15:00:30.825Z,3.10
2023-02-01T15:03:25.502Z,3.45
2023-02-01T15:08:31.141Z,3.67
2023-02-01T15:11:02.156Z,3.28
2023-02-01T15:13:29.987Z,3.33
2023-02-01T15:16:13.197Z,3.85
2023-02-01T15:18:40.453Z,2.97
2023-02-01T15:21:27.434Z,3.35
2023-02-01T15:24:15.592Z,3.30
2023-02-01T15:26:42.350Z,3.80
2023-02-01T15:29:14.226Z,3.58
2023-02-01T15:31:45.660Z,3.92
2023-02-01T15:34:16.103Z,3.28
2023-02-01T15:37:00.393Z,3.33
2023-02-01T15:39:30.422Z,3.10
2023-02-01T15:42:02.879Z,3.95
2023-02-01T15:44:43.569Z,5.00
2023-02-01T15:47:17.699Z,4.00
2023-02-01T15:49:47.556Z,4.40
2023-02-01T15:52:35.488Z,3.40
2023-02-01T15:55:08.428Z,3.25
2023-02-01T15:57:40.358Z,4.20
2023-02-01T16:00:23.198Z,3.38
2023-02-01T16:02:55.592Z,2.83
2023-02-01T16:05:30.875Z,3.80
2023-02-01T16:08:05.314Z,3.90
2023-02-01T16:10:33.202Z,4.25
2023-02-01T16:13:01.263Z,3.13
2023-02-01T16:15:31.368Z,3.00
2023-02-01T16:17:57.936Z,3.28
2023-02-01T16:20:24.919Z,4.32
2023-02-01T16:22:51.854Z,4.35
2023-02-01T16:25:18.391Z,4.40
2023-02-01T16:27:44.903Z,4.00
2023-02-01T16:30:12.553Z,3.80
2023-02-01T16:32:39.253Z,3.83
2023-02-01T16:35:42.993Z,4.82
2023-02-01T16:38:16.309Z,4.80
2023-02-01T16:40:44.322Z,5.43
2023-02-01T16:43:19.297Z,4.70
2023-02-01T16:45:49.305Z,5.93
2023-02-01T16:48:27.313Z,7.10
2023-02-01T16:50:57.709Z,5.90
2023-02-01T16:53:26.997Z,8.80
2023-02-01T16:55:53.632Z,6.85
2023-02-01T16:58:21.462Z,6.97
2023-02-01T17:00:50.250Z,5.22
2023-02-01T17:03:20.039Z,14.85
2023-02-01T17:05:49.400Z,13.52
2023-02-01T17:08:35.260Z,4.78
2023-02-01T17:11:02.820Z,3.85
2023-02-01T17:13:29.651Z,4.00
2023-02-01T17:16:00.943Z,3.80
2023-02-01T17:18:31.678Z,3.78
2023-02-01T17:21:03.086Z,3.72
2023-02-01T17:23:30.696Z,3.85
2023-02-01T17:25:57.816Z,3.15
2023-02-01T17:28:25.086Z,3.65
2023-02-01T17:30:51.798Z,3.55
2023-02-01T17:33:36.060Z,4.10
2023-02-01T17:36:04.703Z,3.72
2023-02-01T17:38:31.476Z,3.53
2023-02-01T17:40:58.039Z,3.70
2023-02-01T17:43:26.076Z,3.92
2023-02-01T17:45:56.272Z,3.83
2023-02-01T17:48:23.654Z,3.60
2023-02-01T17:50:54.671Z,4.38
2023-02-01T17:53:24.497Z,5.20
2023-02-01T17:55:52.682Z,5.28
2023-02-01T17:58:20.016Z,4.63
2023-02-01T18:00:48.065Z,3.97
2023-02-01T18:03:26.945Z,4.30
2023-02-01T18:05:55.713Z,4.57
2023-02-01T18:08:24.810Z,5.15
2023-02-01T18:10:54.389Z,5.07
2023-02-01T18:13:21.480Z,4.18
2023-02-01T18:15:48.938Z,3.63
2023-02-01T18:18:15.617Z,3.65
2023-02-01T18:20:44.198Z,3.85
2023-02-01T18:23:18.810Z,3.42
2023-02-01T18:25:47.135Z,3.50
2023-02-01T18:28:15.637Z,4.30
2023-02-01T18:30:44.747Z,4.03
2023-02-01T18:33:16.300Z,4.30
2023-02-01T18:35:43.542Z,4.28
2023-02-01T18:38:10.721Z,5.03
2023-02-01T18:40:46.359Z,4.25
2023-02-01T18:43:14.065Z,3.92
2023-02-01T18:45:42.278Z,3.75
2023-02-01T18:48:10.614Z,4.00
2023-02-01T18:50:40.066Z,4.35
2023-02-01T18:53:13.295Z,3.47
2023-02-01T18:55:40.190Z,4.00
2023-02-01T18:58:07.352Z,3.58
2023-02-01T19:00:35.393Z,3.60
2023-02-01T19:03:02.073Z,3.35
2023-02-01T19:05:28.752Z,4.50
2023-02-01T19:07:55.220Z,4.90
2023-02-01T19:10:23.664Z,4.38
2023-02-01T19:12:51.959Z,3.20
2023-02-01T19:15:18.803Z,4.13
2023-02-01T19:17:47.234Z,3.80
2023-02-01T19:20:16.371Z,5.10
2023-02-01T19:22:43.065Z,4.32
2023-02-01T19:25:13.387Z,3.90
2023-02-01T19:27:40.015Z,3.58
2023-02-01T19:30:07.210Z,3.92
2023-02-01T19:32:34.012Z,4.15
2023-02-01T19:35:00.570Z,4.38
2023-02-01T19:37:27.090Z,5.97
2023-02-01T19:39:53.572Z,3.97
2023-02-01T19:42:20.322Z,6.15
2023-02-01T19:44:46.968Z,4.72
2023-02-01T19:47:13.493Z,5.07
2023-02-01T19:49:41.831Z,4.25
2023-02-01T19:52:08.457Z,3.90
2023-02-01T19:54:35.283Z,5.70
2023-02-01T19:57:01.915Z,6.78
2023-02-01T19:59:28.601Z,4.88
2023-02-01T20:01:54.895Z,5.45
2023-02-01T20:04:21.743Z,5.40
2023-02-01T20:06:49.126Z,5.28
2023-02-01T20:09:17.789Z,3.90
2023-02-01T20:11:44.914Z,4.22
2023-02-01T20:14:12.368Z,4.90
2023-02-01T20:16:40.390Z,4.68
2023-02-01T20:19:09.203Z,3.90
2023-02-01T20:21:37.112Z,3.88
2023-02-01T20:24:06.743Z,4.13
2023-02-01T20:26:34.528Z,5.95
2023-02-01T20:29:01.951Z,4.75
2023-02-01T20:31:29.833Z,5.30
2023-02-01T20:33:57.395Z,4.00
2023-02-01T20:36:26.309Z,4.35
2023-02-01T20:38:54.394Z,3.55
2023-02-01T20:41:21.412Z,4.30
2023-02-01T20:43:48.774Z,4.28
2023-02-01T20:46:15.986Z,4.10
2023-02-01T20:48:44.369Z,4.55
2023-02-01T20:51:12.253Z,3.72
2023-02-01T20:53:39.863Z,4.90
2023-02-01T20:56:07.573Z,3.55
2023-02-01T20:58:34.632Z,3.85
2023-02-01T21:01:01.384Z,4.10
2023-02-01T21:03:27.936Z,4.10
2023-02-01T21:05:57.631Z,3.75
2023-02-01T21:08:25.260Z,3.88
2023-02-01T21:10:59.429Z,3.53
2023-02-01T21:13:27.797Z,4.30
2023-02-01T21:15:54.431Z,3.53
2023-02-01T21:18:21.513Z,4.88
2023-02-01T21:20:48.169Z,4.72
2023-02-01T21:23:16.073Z,3.92
2023-02-01T21:25:44.267Z,3.80
2023-02-01T21:28:11.403Z,4.45
2023-02-01T21:30:38.449Z,6.40
2023-02-01T21:33:05.944Z,4.78
2023-02-01T21:35:32.475Z,4.53
2023-02-01T21:37:59.060Z,3.60
2023-02-01T21:40:25.572Z,3.75
2023-02-01T21:42:52.236Z,3.45
2023-02-01T21:45:18.774Z,4.93
2023-02-01T21:47:45.964Z,3.58
2023-02-01T21:50:18.086Z,4.05
2023-02-01T21:52:45.272Z,4.00
2023-02-01T21:55:12.820Z,4.40
2023-02-01T21:57:39.670Z,4.05
2023-02-01T22:00:08.665Z,3.47
2023-02-01T22:02:35.881Z,3.88
2023-02-01T22:05:05.248Z,3.80
2023-02-01T22:07:33.873Z,4.18
2023-02-01T22:10:01.724Z,4.07
2023-02-01T22:12:28.258Z,4.05
2023-02-01T22:14:54.760Z,3.65
2023-02-01T22:17:21.484Z,4.60
2023-02-01T22:19:48.027Z,4.07
2023-02-01T22:22:14.546Z,3.75
2023-02-01T22:24:41.030Z,3.92
2023-02-01T22:27:14.391Z,4.18
2023-02-01T22:29:42.473Z,3.83
2023-02-01T22:32:09.527Z,4.30
2023-02-01T22:34:36.101Z,4.03
2023-02-01T22:37:03.077Z,3.78
2023-02-01T22:39:29.597Z,4.93
2023-02-01T22:41:56.103Z,4.25
2023-02-01T22:44:23.732Z,4.68
2023-02-01T22:46:50.476Z,3.75
2023-02-01T22:49:17.291Z,4.18
2023-02-01T22:51:44.033Z,4.35
2023-02-01T22:54:17.410Z,3.88
2023-02-01T22:56:43.884Z,4.82
2023-02-01T22:59:12.855Z,4.20
2023-02-01T23:01:39.426Z,4.50
2023-02-01T23:04:09.312Z,3.70
2023-02-01T23:06:36.092Z,3.47
2023-02-01T23:09:11.321Z,5.25
2023-02-01T23:11:38.812Z,4.35
2023-02-01T23:14:06.251Z,5.35
2023-02-01T23:16:33.122Z,4.55
2023-02-01T23:19:00.152Z,3.88
2023-02-01T23:21:26.836Z,3.88
2023-02-01T23:23:55.497Z,4.25
2023-02-01T23:26:23.489Z,5.25
2023-02-01T23:28:55.006Z,4.40
2023-02-01T23:31:24.143Z,3.83
2023-02-01T23:33:54.658Z,5.15
2023-02-01T23:36:22.615Z,4.93
2023-02-01T23:38:49.473Z,4.78
2023-02-01T23:41:17.927Z,4.22
2023-02-01T23:44:00.125Z,4.47
2023-02-01T23:46:32.516Z,4.47
2023-02-01T23:49:00.263Z,4.60
2023-02-01T23:51:27.716Z,5.13
2023-02-01T23:53:55.152Z,5.00
2023-02-01T23:56:31.214Z,4.82
2023-02-01T23:58:57.923Z,4.05
